Time;durP1;ratioP1;P1;durP2;ratioP2;P2;SDS_P1;SDS_P2;PMS_P1;PMS_P2;Temp;Humidity;BMP_temperature;BMP_pressure;BME280_temperature;BME280_humidity;BME280_pressure;Samples;Min_cycle;Max_cycle;Signal;HPM_P1;HPM_P2
2022/10/02 00:01:45;;;;;;;5.10;4.45;;;;;;;;;;5056247;28;20033;-63
2022/10/02 00:04:13;;;;;;;5.38;4.60;;;;;;;;;;5056204;28;20033;-64
2022/10/02 00:06:45;;;;;;;5.25;4.45;;;;;;;;;;5035100;28;20041;-63
2022/10/02 00:09:14;;;;;;;6.18;4.63;;;;;;;;;;5035957;28;20033;-63
2022/10/02 00:11:42;;;;;;;5.88;4.97;;;;;;;;;;5035916;28;20175;-66
2022/10/02 00:14:10;;;;;;;5.40;4.05;;;;;;;;;;5035011;28;20029;-67
2022/10/02 00:16:40;;;;;;;5.70;4.55;;;;;;;;;;5036039;28;20360;-64
2022/10/02 00:19:08;;;;;;;9.93;4.80;;;;;;;;;;5036013;28;20111;-65
2022/10/02 00:21:49;;;;;;;5.45;4.32;;;;;;;;;;5035693;28;20163;-64
2022/10/02 00:24:16;;;;;;;4.70;4.15;;;;;;;;;;5035852;28;20037;-65
2022/10/02 00:27:01;;;;;;;4.35;3.83;;;;;;;;;;5035799;28;20025;-63
2022/10/02 00:29:30;;;;;;;6.15;4.93;;;;;;;;;;5050943;28;20084;-64
2022/10/02 00:32:25;;;;;;;8.00;4.97;;;;;;;;;;5035824;28;20021;-65
2022/10/02 00:35:13;;;;;;;4.70;4.28;;;;;;;;;;4981949;28;20039;-65
2022/10/02 00:37:45;;;;;;;5.00;4.18;;;;;;;;;;5035582;28;20388;-65
2022/10/02 00:40:29;;;;;;;4.28;3.88;;;;;;;;;;5035765;28;20025;-66
2022/10/02 00:43:10;;;;;;;5.13;3.67;;;;;;;;;;5050926;28;20116;-66
2022/10/02 00:45:45;;;;;;;4.90;4.05;;;;;;;;;;5035417;28;20536;-66
2022/10/02 00:48:29;;;;;;;5.75;3.88;;;;;;;;;;5050801;28;20036;-65
2022/10/02 00:51:20;;;;;;;5.28;3.80;;;;;;;;;;5035562;28;20030;-64
2022/10/02 00:53:50;;;;;;;5.22;3.88;;;;;;;;;;5035069;28;20025;-64
2022/10/02 00:56:16;;;;;;;;;;;;;;;;;;5035812;28;20033;-65
2022/10/02 00:58:44;;;;;;;4.07;3.33;;;;;;;;;;5035100;28;19909;-65
2022/10/02 01:01:17;;;;;;;5.28;3.78;;;;;;;;;;5035047;28;20029;-64
2022/10/02 01:03:45;;;;;;;6.22;3.35;;;;;;;;;;5034678;28;20029;-63
2022/10/02 01:06:11;;;;;;;6.53;4.18;;;;;;;;;;5044360;28;20545;-65
2022/10/02 01:08:37;;;;;;;5.45;4.28;;;;;;;;;;5055134;28;20040;-65
2022/10/02 01:11:03;;;;;;;4.63;3.83;;;;;;;;;;5054815;28;20063;-65
2022/10/02 01:13:32;;;;;;;7.07;4.40;;;;;;;;;;5054871;28;20517;-66
2022/10/02 01:16:00;;;;;;;3.63;3.33;;;;;;;;;;5054994;28;20100;-65
2022/10/02 01:18:27;;;;;;;4.80;3.95;;;;;;;;;;5054930;28;20247;-64
2022/10/02 01:20:56;;;;;;;3.83;3.45;;;;;;;;;;5054683;28;20020;-67
2022/10/02 01:23:28;;;;;;;3.50;3.20;;;;;;;;;;5054916;28;20029;-66
2022/10/02 01:25:53;;;;;;;3.00;2.80;;;;;;;;;;5054620;28;20036;-66
2022/10/02 01:28:19;;;;;;;3.60;3.08;;;;;;;;;;5054547;28;20009;-67
2022/10/02 01:30:47;;;;;;;4.25;3.05;;;;;;;;;;5054529;28;20025;-67
2022/10/02 01:33:12;;;;;;;3.85;3.22;;;;;;;;;;5054367;28;20036;-67
2022/10/02 01:35:38;;;;;;;3.22;2.92;;;;;;;;;;5054603;28;20021;-68
2022/10/02 01:38:08;;;;;;;3.00;2.72;;;;;;;;;;5054555;28;20447;-67
2022/10/02 01:40:35;;;;;;;3.50;3.20;;;;;;;;;;5054590;28;20111;-68
2022/10/02 01:43:09;;;;;;;3.78;3.03;;;;;;;;;;5053632;28;20527;-68
2022/10/02 01:45:53;;;;;;;3.42;2.83;;;;;;;;;;5054110;28;20033;-68
2022/10/02 01:48:22;;;;;;;3.67;3.20;;;;;;;;;;5054406;28;20462;-67
2022/10/02 01:50:56;;;;;;;2.97;2.67;;;;;;;;;;5054205;28;20024;-68
2022/10/02 01:53:32;;;;;;;3.90;3.00;;;;;;;;;;5054151;28;20025;-67
2022/10/02 01:56:08;;;;;;;2.63;2.42;;;;;;;;;;5054223;28;20029;-68
2022/10/02 01:58:33;;;;;;;3.17;2.50;;;;;;;;;;5036526;28;20037;-65
2022/10/02 02:01:17;;;;;;;3.20;2.90;;;;;;;;;;5054278;28;20025;-65
2022/10/02 02:03:46;;;;;;;2.75;2.55;;;;;;;;;;5036335;28;20092;-64
2022/10/02 02:06:18;;;;;;;2.88;2.47;;;;;;;;;;5053892;28;20095;-65
2022/10/02 02:08:48;;;;;;;2.20;2.08;;;;;;;;;;5053787;28;20166;-65
2022/10/02 02:11:15;;;;;;;2.47;2.28;;;;;;;;;;5053769;28;20432;-65
2022/10/02 02:13:47;;;;;;;2.42;2.22;;;;;;;;;;5053990;28;20089;-65
2022/10/02 02:16:21;;;;;;;2.55;2.25;;;;;;;;;;5053977;28;20028;-68
2022/10/02 02:18:53;;;;;;;2.70;2.45;;;;;;;;;;5053729;28;20059;-67
2022/10/02 02:21:41;;;;;;;2.53;2.33;;;;;;;;;;5053603;28;20094;-69
2022/10/02 02:24:16;;;;;;;2.88;2.58;;;;;;;;;;5042973;28;20391;-68
2022/10/02 02:26:42;;;;;;;3.58;2.55;;;;;;;;;;5053506;28;20078;-66
2022/10/02 02:29:08;;;;;;;2.78;2.58;;;;;;;;;;5053811;28;20079;-67
2022/10/02 02:31:36;;;;;;;2.53;2.33;;;;;;;;;;5053493;28;20430;-68
2022/10/02 02:34:05;;;;;;;2.72;2.53;;;;;;;;;;5052633;28;20025;-68
2022/10/02 02:36:33;;;;;;;2.92;2.70;;;;;;;;;;5053758;28;20029;-68
2022/10/02 02:39:01;;;;;;;2.22;2.13;;;;;;;;;;5053801;28;20045;-66
2022/10/02 02:41:29;;;;;;;2.83;2.63;;;;;;;;;;5053539;28;20417;-65
2022/10/02 02:44:04;;;;;;;2.72;2.53;;;;;;;;;;5053913;28;20411;-66
2022/10/02 02:47:02;;;;;;;3.03;2.75;;;;;;;;;;5053398;28;20071;-66
2022/10/02 02:49:26;;;;;;;2.25;2.08;;;;;;;;;;5053228;28;20036;-67
2022/10/02 02:51:52;;;;;;;4.30;2.55;;;;;;;;;;5053682;28;20060;-66
2022/10/02 02:54:23;;;;;;;3.30;3.00;;;;;;;;;;5053664;28;20025;-64
2022/10/02 02:56:48;;;;;;;3.05;2.78;;;;;;;;;;5038360;28;20040;-65
2022/10/02 02:59:14;;;;;;;4.18;2.63;;;;;;;;;;5057310;28;20371;-65
2022/10/02 03:01:40;;;;;;;2.53;2.28;;;;;;;;;;5057177;28;20032;-65
2022/10/02 03:04:08;;;;;;;2.72;2.45;;;;;;;;;;5057288;28;20479;-65
2022/10/02 03:06:36;;;;;;;2.47;2.28;;;;;;;;;;5056744;28;20415;-65
2022/10/02 03:09:04;;;;;;;2.92;2.40;;;;;;;;;;5057234;28;20432;-66
2022/10/02 03:11:32;;;;;;;2.20;2.10;;;;;;;;;;5056763;28;20037;-66
2022/10/02 03:14:21;;;;;;;2.40;1.92;;;;;;;;;;5057057;28;20025;-65
2022/10/02 03:16:53;;;;;;;2.08;1.85;;;;;;;;;;5019493;28;20053;-65
2022/10/02 03:19:37;;;;;;;2.45;1.88;;;;;;;;;;5056986;28;20025;-66
2022/10/02 03:22:03;;;;;;;2.00;1.90;;;;;;;;;;5056683;28;20497;-65
2022/10/02 03:24:48;;;;;;;1.58;1.48;;;;;;;;;;5056778;28;20060;-65
2022/10/02 03:27:31;;;;;;;1.98;1.63;;;;;;;;;;5056872;28;20036;-65
2022/10/02 03:30:07;;;;;;;1.88;1.77;;;;;;;;;;5056795;28;20029;-66
2022/10/02 03:32:34;;;;;;;2.13;1.73;;;;;;;;;;5038761;28;20128;-65
2022/10/02 03:35:00;;;;;;;1.80;1.70;;;;;;;;;;5056883;28;20497;-65
2022/10/02 03:37:26;;;;;;;2.85;1.77;;;;;;;;;;5056601;28;20025;-68
2022/10/02 03:39:52;;;;;;;2.80;1.58;;;;;;;;;;5056878;28;20151;-68
2022/10/02 03:42:22;;;;;;;1.92;1.67;;;;;;;;;;5055924;28;20483;-68
2022/10/02 03:44:47;;;;;;;3.40;1.63;;;;;;;;;;5055053;28;20020;-67
2022/10/02 03:47:12;;;;;;;1.98;1.88;;;;;;;;;;5056516;28;20036;-67
2022/10/02 03:49:39;;;;;;;2.35;1.80;;;;;;;;;;5056792;28;20435;-67
2022/10/02 03:52:05;;;;;;;1.58;1.48;;;;;;;;;;5055932;28;20064;-67
2022/10/02 03:54:32;;;;;;;1.67;1.40;;;;;;;;;;5056423;28;20048;-66
2022/10/02 03:57:02;;;;;;;1.73;1.63;;;;;;;;;;5056086;28;20111;-67
2022/10/02 03:59:46;;;;;;;2.42;1.60;;;;;;;;;;5037926;28;20021;-67
2022/10/02 04:02:22;;;;;;;1.63;1.52;;;;;;;;;;5037600;28;20108;-68
2022/10/02 04:04:53;;;;;;;2.20;1.50;;;;;;;;;;5056320;28;20385;-67
2022/10/02 04:07:21;;;;;;;1.92;1.60;;;;;;;;;;5034127;28;20045;-71
2022/10/02 04:10:01;;;;;;;1.88;1.40;;;;;;;;;;5034746;28;20037;-71
2022/10/02 04:12:29;;;;;;;2.03;1.50;;;;;;;;;;5035161;28;20145;-68
2022/10/02 04:15:05;;;;;;;3.78;1.60;;;;;;;;;;5036440;28;20437;-69
2022/10/02 04:17:52;;;;;;;1.50;1.40;;;;;;;;;;5036050;28;20028;-70
2022/10/02 04:20:20;;;;;;;1.40;1.30;;;;;;;;;;5035472;28;20030;-69
2022/10/02 04:22:49;;;;;;;1.75;1.35;;;;;;;;;;5035554;28;20526;-69
2022/10/02 04:25:16;;;;;;;1.70;1.35;;;;;;;;;;5036184;28;20056;-69
2022/10/02 04:27:54;;;;;;;1.38;1.27;;;;;;;;;;5036228;28;20512;-69
2022/10/02 04:30:20;;;;;;;1.88;1.63;;;;;;;;;;5035767;28;20061;-69
2022/10/02 04:32:46;;;;;;;2.60;1.60;;;;;;;;;;5035722;28;20408;-69
2022/10/02 04:35:11;;;;;;;2.22;1.48;;;;;;;;;;5034936;28;20430;-69
2022/10/02 04:37:37;;;;;;;1.67;1.58;;;;;;;;;;5035153;28;20030;-68
2022/10/02 04:40:17;;;;;;;1.75;1.50;;;;;;;;;;5035211;28;20057;-68
2022/10/02 04:42:42;;;;;;;3.17;1.58;;;;;;;;;;5035247;28;20029;-69
2022/10/02 04:45:27;;;;;;;2.15;1.52;;;;;;;;;;5035126;28;20387;-68
2022/10/02 04:48:12;;;;;;;1.30;1.20;;;;;;;;;;5035170;28;20034;-68
2022/10/02 04:50:52;;;;;;;3.05;1.55;;;;;;;;;;5034467;28;20534;-69
2022/10/02 04:53:18;;;;;;;;;;;;;;;;;;5035301;28;20037;-69
2022/10/02 04:55:52;;;;;;;2.20;1.40;;;;;;;;;;5034880;28;19919;-69
2022/10/02 04:58:27;;;;;;;1.95;1.30;;;;;;;;;;5034565;28;20029;-69
2022/10/02 05:00:52;;;;;;;2.00;1.33;;;;;;;;;;5034775;28;20028;-69
2022/10/02 05:03:17;;;;;;;3.35;1.17;;;;;;;;;;5034806;28;20460;-69
2022/10/02 05:05:55;;;;;;;1.40;1.30;;;;;;;;;;5040174;28;20388;-69
2022/10/02 05:08:26;;;;;;;2.17;1.35;;;;;;;;;;5054571;28;20071;-70
2022/10/02 05:11:13;;;;;;;1.08;0.98;;;;;;;;;;5054345;28;20471;-70
2022/10/02 05:13:45;;;;;;;1.35;1.25;;;;;;;;;;5054191;28;20043;-70
2022/10/02 05:16:31;;;;;;;1.73;1.10;;;;;;;;;;5054175;28;20499;-70
2022/10/02 05:19:15;;;;;;;2.85;1.17;;;;;;;;;;5053105;28;20132;-70
2022/10/02 05:21:47;;;;;;;1.73;1.20;;;;;;;;;;5054222;28;20037;-69
2022/10/02 05:24:27;;;;;;;1.65;1.10;;;;;;;;;;5054164;28;20071;-69
2022/10/02 05:27:04;;;;;;;3.78;0.95;;;;;;;;;;5054019;28;20044;-69
2022/10/02 05:29:33;;;;;;;1.67;1.25;;;;;;;;;;5052867;28;20383;-69
2022/10/02 05:31:58;;;;;;;1.67;1.23;;;;;;;;;;5053923;28;20060;-68
2022/10/02 05:34:24;;;;;;;2.10;1.45;;;;;;;;;;5053594;28;20056;-66
2022/10/02 05:36:49;;;;;;;3.03;1.23;;;;;;;;;;5053784;28;20104;-67
2022/10/02 05:39:30;;;;;;;2.22;1.30;;;;;;;;;;5053483;28;20072;-75
2022/10/02 05:41:55;;;;;;;3.30;1.20;;;;;;;;;;5053536;28;20115;-65
2022/10/02 05:44:36;;;;;;;1.73;0.98;;;;;;;;;;5035344;28;20120;-65
2022/10/02 05:47:18;;;;;;;1.65;0.90;;;;;;;;;;5034687;28;20470;-67
2022/10/02 05:49:55;;;;;;;1.88;1.42;;;;;;;;;;5051640;28;20029;-65
2022/10/02 05:52:39;;;;;;;1.80;1.13;;;;;;;;;;5051230;28;20036;-65
2022/10/02 05:55:14;;;;;;;2.15;1.05;;;;;;;;;;5051586;28;20499;-65
2022/10/02 05:57:43;;;;;;;1.15;1.08;;;;;;;;;;5033365;28;20036;-66
2022/10/02 06:00:11;;;;;;;2.00;0.90;;;;;;;;;;5052147;28;20467;-66
2022/10/02 06:02:46;;;;;;;3.38;1.20;;;;;;;;;;5052492;28;20078;-65
2022/10/02 06:05:22;;;;;;;1.40;1.30;;;;;;;;;;5050205;28;20049;-65
2022/10/02 06:07:49;;;;;;;1.75;1.20;;;;;;;;;;5052560;28;20033;-66
2022/10/02 06:10:17;;;;;;;3.08;1.23;;;;;;;;;;5052468;28;20054;-65
2022/10/02 06:12:49;;;;;;;2.13;0.93;;;;;;;;;;5052328;28;20033;-66
2022/10/02 06:15:18;;;;;;;1.88;1.23;;;;;;;;;;5052450;28;20463;-66
2022/10/02 06:17:48;;;;;;;2.05;1.20;;;;;;;;;;5034345;28;20525;-65
2022/10/02 06:20:29;;;;;;;3.08;1.50;;;;;;;;;;5049685;28;20029;-65
2022/10/02 06:22:58;;;;;;;1.75;1.30;;;;;;;;;;5052188;28;20063;-66
2022/10/02 06:25:39;;;;;;;1.30;1.10;;;;;;;;;;5051666;28;20060;-66
2022/10/02 06:28:09;;;;;;;1.20;1.05;;;;;;;;;;5050578;28;20479;-67
2022/10/02 06:30:37;;;;;;;1.45;1.08;;;;;;;;;;5054971;28;20396;-67
2022/10/02 06:33:06;;;;;;;2.40;1.08;;;;;;;;;;5055699;28;20126;-66
2022/10/02 06:35:41;;;;;;;2.75;1.40;;;;;;;;;;5055910;28;20029;-66
2022/10/02 06:38:16;;;;;;;2.65;1.10;;;;;;;;;;5055765;28;20127;-65
2022/10/02 06:40:44;;;;;;;1.90;1.10;;;;;;;;;;5055978;28;20025;-67
2022/10/02 06:43:13;;;;;;;3.95;1.30;;;;;;;;;;5055906;28;20471;-67
2022/10/02 06:45:59;;;;;;;2.17;1.02;;;;;;;;;;5037650;28;20082;-65
2022/10/02 06:48:25;;;;;;;1.30;1.20;;;;;;;;;;5055141;28;20033;-65
2022/10/02 06:51:06;;;;;;;2.33;1.60;;;;;;;;;;5055707;28;20109;-66
2022/10/02 06:53:41;;;;;;;1.25;1.15;;;;;;;;;;5055776;28;20394;-67
2022/10/02 06:56:12;;;;;;;3.25;1.40;;;;;;;;;;5055593;28;20033;-65
2022/10/02 06:58:46;;;;;;;2.53;1.38;;;;;;;;;;5055094;28;20387;-66
2022/10/02 07:01:12;;;;;;;2.95;1.20;;;;;;;;;;5055550;28;20036;-67
2022/10/02 07:03:37;;;;;;;2.30;1.23;;;;;;;;;;5055957;28;20032;-66
2022/10/02 07:06:02;;;;;;;4.40;1.30;;;;;;;;;;5055545;28;20407;-64
2022/10/02 07:08:28;;;;;;;2.85;1.27;;;;;;;;;;5037175;28;20037;-67
2022/10/02 07:10:59;;;;;;;1.42;1.15;;;;;;;;;;5054824;28;20090;-65
2022/10/02 07:13:44;;;;;;;1.05;1.05;;;;;;;;;;5055561;28;20025;-66
2022/10/02 07:16:12;;;;;;;2.13;1.30;;;;;;;;;;5055242;28;20079;-65
2022/10/02 07:18:57;;;;;;;1.98;1.13;;;;;;;;;;5055272;28;20032;-65
2022/10/02 07:21:32;;;;;;;1.83;1.13;;;;;;;;;;5055436;28;20049;-66
2022/10/02 07:24:30;;;;;;;3.45;1.08;;;;;;;;;;5053862;28;20063;-66
2022/10/02 07:26:58;;;;;;;2.08;1.17;;;;;;;;;;5011056;28;20041;-66
2022/10/02 07:29:35;;;;;;;2.00;1.50;;;;;;;;;;5054938;28;20021;-66
2022/10/02 07:32:10;;;;;;;2.38;1.65;;;;;;;;;;5054723;28;20032;-66
2022/10/02 07:34:59;;;;;;;2.20;1.25;;;;;;;;;;5055051;28;20108;-66
2022/10/02 07:37:44;;;;;;;1.50;1.10;;;;;;;;;;5054673;28;20029;-66
2022/10/02 07:40:21;;;;;;;4.60;1.48;;;;;;;;;;5053754;28;20052;-66
2022/10/02 07:42:58;;;;;;;2.13;1.10;;;;;;;;;;5054474;28;20033;-65
2022/10/02 07:45:28;;;;;;;2.08;1.38;;;;;;;;;;5054751;28;20036;-66
2022/10/02 07:48:14;;;;;;;2.22;1.40;;;;;;;;;;5036810;28;20166;-65
2022/10/02 07:50:39;;;;;;;3.95;1.48;;;;;;;;;;5053897;28;20505;-66
2022/10/02 07:53:13;;;;;;;3.67;1.13;;;;;;;;;;5036389;28;20060;-66
2022/10/02 07:55:40;;;;;;;2.03;1.10;;;;;;;;;;5036825;28;20765;-66
2022/10/02 07:58:08;;;;;;;2.03;1.13;;;;;;;;;;5054637;28;20021;-65
2022/10/02 08:01:03;;;;;;;5.93;1.42;;;;;;;;;;5054502;28;20048;-66
2022/10/02 08:03:32;;;;;;;1.85;1.27;;;;;;;;;;5037318;28;20134;-65
2022/10/02 08:05:59;;;;;;;2.20;1.30;;;;;;;;;;5053862;28;20175;-67
2022/10/02 08:08:26;;;;;;;3.75;1.20;;;;;;;;;;5054150;28;20419;-67
2022/10/02 08:10:55;;;;;;;1.95;1.08;;;;;;;;;;5054009;28;20017;-67
2022/10/02 08:13:46;;;;;;;3.50;1.30;;;;;;;;;;5054146;28;20344;-66
2022/10/02 08:16:13;;;;;;;1.30;0.90;;;;;;;;;;5023090;28;20130;-66
2022/10/02 08:18:52;;;;;;;1.58;1.13;;;;;;;;;;5053935;28;20029;-66
2022/10/02 08:21:19;;;;;;;2.67;1.20;;;;;;;;;;5054311;28;20082;-66
2022/10/02 08:23:51;;;;;;;0.98;0.88;;;;;;;;;;5036324;28;20043;-64
2022/10/02 08:26:22;;;;;;;3.78;1.15;;;;;;;;;;5052719;28;20040;-65
2022/10/02 08:28:51;;;;;;;3.40;1.27;;;;;;;;;;5052726;28;20044;-66
2022/10/02 08:31:17;;;;;;;2.58;1.10;;;;;;;;;;5051955;28;20028;-69
2022/10/02 08:33:43;;;;;;;2.47;1.30;;;;;;;;;;5035825;28;20037;-69
2022/10/02 08:36:08;;;;;;;3.65;1.25;;;;;;;;;;5053835;28;20040;-70
2022/10/02 08:38:57;;;;;;;2.55;1.25;;;;;;;;;;5054347;28;20029;-68
2022/10/02 08:41:26;;;;;;;3.35;1.15;;;;;;;;;;5009091;28;20379;-69
2022/10/02 08:44:10;;;;;;;3.80;1.20;;;;;;;;;;5054361;28;20025;-69
2022/10/02 08:46:42;;;;;;;2.38;1.55;;;;;;;;;;5036446;28;20529;-70
2022/10/02 08:49:27;;;;;;;3.45;1.25;;;;;;;;;;5054527;28;20505;-69
2022/10/02 08:52:11;;;;;;;2.50;1.20;;;;;;;;;;5054223;28;20029;-69
2022/10/02 08:54:44;;;;;;;1.90;1.13;;;;;;;;;;5035722;28;20079;-69
2022/10/02 08:57:12;;;;;;;2.45;1.10;;;;;;;;;;5053460;28;20064;-69
2022/10/02 08:59:56;;;;;;;2.72;1.40;;;;;;;;;;5052443;28;20379;-65
2022/10/02 09:02:40;;;;;;;1.73;1.23;;;;;;;;;;5053289;28;20032;-66
2022/10/02 09:05:25;;;;;;;1.95;1.23;;;;;;;;;;5053041;28;20492;-65
2022/10/02 09:07:53;;;;;;;2.25;0.98;;;;;;;;;;5053320;28;20518;-65
2022/10/02 09:10:37;;;;;;;1.48;1.08;;;;;;;;;;5052507;28;20021;-65
2022/10/02 09:13:02;;;;;;;1.88;1.40;;;;;;;;;;5052893;28;20033;-64
2022/10/02 09:16:06;;;;;;;2.92;1.27;;;;;;;;;;5053112;28;20035;-66
2022/10/02 09:18:50;;;;;;;4.75;1.60;;;;;;;;;;4972066;28;20046;-64
2022/10/02 09:21:17;;;;;;;3.58;1.55;;;;;;;;;;4972316;28;20097;-64
2022/10/02 09:24:02;;;;;;;4.47;1.67;;;;;;;;;;5003236;28;20044;-65
2022/10/02 09:26:27;;;;;;;3.00;1.20;;;;;;;;;;5052740;28;20063;-66
2022/10/02 09:28:53;;;;;;;2.15;1.25;;;;;;;;;;5051631;28;20025;-64
2022/10/02 09:31:39;;;;;;;3.10;1.35;;;;;;;;;;5052762;28;20037;-66
2022/10/02 09:34:27;;;;;;;3.15;1.25;;;;;;;;;;5034945;28;20040;-65
2022/10/02 09:36:58;;;;;;;2.50;1.20;;;;;;;;;;5034051;28;20052;-65
2022/10/02 09:39:43;;;;;;;3.47;1.05;;;;;;;;;;5052631;28;20063;-64
2022/10/02 09:42:08;;;;;;;2.97;1.48;;;;;;;;;;5052588;28;20497;-65
2022/10/02 09:44:41;;;;;;;2.75;1.50;;;;;;;;;;5052648;28;20104;-65
2022/10/02 09:47:12;;;;;;;3.20;1.23;;;;;;;;;;5051406;28;20033;-65
2022/10/02 09:49:41;;;;;;;3.60;1.15;;;;;;;;;;5050914;28;20029;-64
2022/10/02 09:52:22;;;;;;;3.17;1.35;;;;;;;;;;5047952;28;20096;-64
2022/10/02 09:55:11;;;;;;;3.67;1.10;;;;;;;;;;5034567;28;20033;-65
2022/10/02 09:57:50;;;;;;;3.35;1.25;;;;;;;;;;5031464;28;20092;-67
2022/10/02 10:00:15;;;;;;;3.30;1.30;;;;;;;;;;5014987;28;20427;-67
2022/10/02 10:02:53;;;;;;;2.05;0.98;;;;;;;;;;5014613;28;20105;-65
2022/10/02 10:05:38;;;;;;;3.08;1.02;;;;;;;;;;5031491;28;20060;-67
2022/10/02 10:08:12;;;;;;;2.25;1.20;;;;;;;;;;5032530;28;20056;-66
2022/10/02 10:10:59;;;;;;;3.75;1.30;;;;;;;;;;5032064;28;20025;-69
2022/10/02 10:13:43;;;;;;;2.58;1.38;;;;;;;;;;5032076;28;20045;-70
2022/10/02 10:16:29;;;;;;;3.42;1.33;;;;;;;;;;5031724;28;20036;-69
2022/10/02 10:19:01;;;;;;;3.97;1.05;;;;;;;;;;5032415;28;20466;-70
2022/10/02 10:21:26;;;;;;;2.20;0.88;;;;;;;;;;5014819;28;20030;-69
2022/10/02 10:23:58;;;;;;;4.78;1.10;;;;;;;;;;5032504;28;20026;-66
2022/10/02 10:26:33;;;;;;;5.55;1.30;;;;;;;;;;5032082;28;20029;-66
2022/10/02 10:29:03;;;;;;;3.13;1.05;;;;;;;;;;5031765;28;20039;-65
2022/10/02 10:31:40;;;;;;;2.67;1.20;;;;;;;;;;5031936;28;20045;-66
2022/10/02 10:34:18;;;;;;;2.42;1.00;;;;;;;;;;5031959;28;20025;-65
2022/10/02 10:39:43;;;;;;;3.65;1.10;;;;;;;;;;5032280;28;20026;-69
2022/10/02 10:42:12;;;;;;;2.22;1.00;;;;;;;;;;5031738;28;20065;-69
2022/10/02 10:44:38;;;;;;;3.47;1.00;;;;;;;;;;5032054;28;20059;-68
2022/10/02 10:47:35;;;;;;;2.40;0.98;;;;;;;;;;5014294;28;20021;-70
2022/10/02 10:50:19;;;;;;;3.78;1.20;;;;;;;;;;4988018;28;20102;-69
2022/10/02 10:52:50;;;;;;;3.30;1.00;;;;;;;;;;5031665;28;20033;-69
2022/10/02 10:55:18;;;;;;;2.78;0.98;;;;;;;;;;5031471;28;20036;-69
2022/10/02 10:57:53;;;;;;;2.00;1.10;;;;;;;;;;5032040;28;20415;-69
2022/10/02 11:00:19;;;;;;;5.88;1.40;;;;;;;;;;5031959;28;20040;-68
2022/10/02 11:02:45;;;;;;;2.17;1.98;;;;;;;;;;5014300;28;20026;-69
2022/10/02 11:05:20;;;;;;;2.30;1.17;;;;;;;;;;5031765;28;20447;-69
2022/10/02 11:08:04;;;;;;;3.90;1.02;;;;;;;;;;5031375;28;20506;-69
2022/10/02 11:10:42;;;;;;;4.68;1.17;;;;;;;;;;5031694;28;20041;-69
2022/10/02 11:13:29;;;;;;;4.68;1.08;;;;;;;;;;5014292;28;20021;-68
2022/10/02 11:16:05;;;;;;;3.42;1.02;;;;;;;;;;5031793;28;20018;-69
2022/10/02 11:18:39;;;;;;;2.30;0.93;;;;;;;;;;5035420;28;20060;-69
2022/10/02 11:21:22;;;;;;;2.88;0.88;;;;;;;;;;5035188;28;20029;-69
2022/10/02 11:23:50;;;;;;;6.00;1.02;;;;;;;;;;5035554;28;20025;-69
2022/10/02 11:26:22;;;;;;;2.95;1.00;;;;;;;;;;5035339;28;20096;-69
2022/10/02 11:28:48;;;;;;;3.85;1.33;;;;;;;;;;5017548;28;20026;-69
2022/10/02 11:31:24;;;;;;;2.15;0.93;;;;;;;;;;5035011;28;20021;-69
2022/10/02 11:33:53;;;;;;;2.30;1.00;;;;;;;;;;5034642;28;20104;-69
2022/10/02 11:36:41;;;;;;;2.20;1.30;;;;;;;;;;5017355;28;20022;-69
2022/10/02 11:39:23;;;;;;;1.65;1.08;;;;;;;;;;5042878;28;20028;-69
2022/10/02 11:42:12;;;;;;;2.88;1.20;;;;;;;;;;5054654;28;20115;-69
2022/10/02 11:44:44;;;;;;;3.85;1.27;;;;;;;;;;5010332;28;20067;-69
2022/10/02 11:47:27;;;;;;;2.13;0.90;;;;;;;;;;5054015;28;20032;-68
2022/10/02 11:50:04;;;;;;;2.13;1.10;;;;;;;;;;5055772;28;20368;-68
2022/10/02 11:52:53;;;;;;;3.30;1.13;;;;;;;;;;5055503;28;20059;-69
2022/10/02 11:55:45;;;;;;;1.67;0.75;;;;;;;;;;5043684;28;20420;-69
2022/10/02 11:58:17;;;;;;;1.58;0.80;;;;;;;;;;5054836;28;20491;-65
2022/10/02 12:01:04;;;;;;;1.58;0.90;;;;;;;;;;5054259;28;20475;-66
2022/10/02 12:03:36;;;;;;;0.95;0.60;;;;;;;;;;5053462;28;20029;-65
2022/10/02 12:06:20;;;;;;;1.20;0.80;;;;;;;;;;5054457;28;20124;-66
2022/10/02 12:08:52;;;;;;;1.65;0.80;;;;;;;;;;5054706;28;20021;-67
2022/10/02 12:11:24;;;;;;;1.45;0.80;;;;;;;;;;5054138;28;20040;-64
2022/10/02 12:13:54;;;;;;;2.20;0.85;;;;;;;;;;5054510;28;20037;-66
2022/10/02 12:16:47;;;;;;;1.02;0.80;;;;;;;;;;5055063;28;20029;-65
2022/10/02 12:19:19;;;;;;;3.20;0.80;;;;;;;;;;5024660;28;20131;-64
2022/10/02 12:27:42;;;;;;;2.45;0.95;;;;;;;;;;5053659;28;20067;-65
2022/10/02 12:30:15;;;;;;;1.40;0.95;;;;;;;;;;5052641;28;20052;-66
2022/10/02 12:32:59;;;;;;;3.75;1.45;;;;;;;;;;5053717;28;20128;-66
2022/10/02 12:35:34;;;;;;;1.83;0.88;;;;;;;;;;5053491;28;20025;-66
2022/10/02 12:38:00;;;;;;;1.40;0.90;;;;;;;;;;5053971;28;20021;-65
2022/10/02 12:40:25;;;;;;;2.78;1.00;;;;;;;;;;5053881;28;20020;-65
2022/10/02 12:43:09;;;;;;;1.55;0.80;;;;;;;;;;5053769;28;20029;-68
2022/10/02 12:45:35;;;;;;;3.15;1.20;;;;;;;;;;5053935;28;20025;-69
2022/10/02 12:48:11;;;;;;;1.42;0.82;;;;;;;;;;5053381;28;20501;-69
2022/10/02 12:50:56;;;;;;;3.28;1.30;;;;;;;;;;5053358;28;20116;-69
2022/10/02 12:53:24;;;;;;;4.00;1.50;;;;;;;;;;5052177;28;20138;-68
2022/10/02 12:56:04;;;;;;;2.28;1.10;;;;;;;;;;5054490;28;20013;-69
2022/10/02 12:58:36;;;;;;;1.88;1.17;;;;;;;;;;5054615;28;20112;-68
2022/10/02 13:01:04;;;;;;;4.57;1.30;;;;;;;;;;5053887;28;20029;-69
2022/10/02 13:03:57;;;;;;;6.38;2.58;;;;;;;;;;5054263;28;20052;-69
2022/10/02 13:06:32;;;;;;;7.10;3.05;;;;;;;;;;5054271;28;20052;-68
2022/10/02 13:09:02;;;;;;;7.05;2.85;;;;;;;;;;5050842;28;20036;-68
2022/10/02 13:11:27;;;;;;;3.13;1.77;;;;;;;;;;5050654;28;20390;-68
2022/10/02 13:13:53;;;;;;;3.45;1.80;;;;;;;;;;5050622;28;20025;-70
2022/10/02 13:16:23;;;;;;;2.38;1.20;;;;;;;;;;5052794;28;20029;-68
2022/10/02 13:18:59;;;;;;;2.10;1.42;;;;;;;;;;5054024;28;20044;-69
2022/10/02 13:21:36;;;;;;;2.88;1.10;;;;;;;;;;5054476;28;20031;-70
2022/10/02 13:24:13;;;;;;;2.03;1.20;;;;;;;;;;5036527;28;20037;-69
2022/10/02 13:26:40;;;;;;;2.30;1.63;;;;;;;;;;5054120;28;20098;-69
2022/10/02 13:29:14;;;;;;;3.05;1.60;;;;;;;;;;5054008;28;20021;-78
2022/10/02 13:31:58;;;;;;;2.38;1.48;;;;;;;;;;5051983;28;20040;-70
2022/10/02 13:34:26;;;;;;;3.80;1.63;;;;;;;;;;5050101;28;20025;-70
2022/10/02 13:37:11;;;;;;;1.92;1.63;;;;;;;;;;5048593;28;20035;-69
2022/10/02 13:39:45;;;;;;;3.30;1.92;;;;;;;;;;5050079;28;20028;-69
2022/10/02 13:42:16;;;;;;;2.60;1.90;;;;;;;;;;5049999;28;20162;-73
2022/10/02 13:45:01;;;;;;;3.00;1.75;;;;;;;;;;5051102;28;20108;-70
2022/10/02 13:47:26;;;;;;;2.83;1.88;;;;;;;;;;5052932;28;20411;-73
2022/10/02 13:50:15;;;;;;;3.28;1.80;;;;;;;;;;5054419;28;20108;-70
2022/10/02 13:52:49;;;;;;;2.08;1.85;;;;;;;;;;5053486;28;20052;-70
2022/10/02 13:55:25;;;;;;;2.35;1.75;;;;;;;;;;5053743;28;20028;-69
2022/10/02 13:58:09;;;;;;;2.38;1.35;;;;;;;;;;5053817;28;20039;-71
2022/10/02 14:00:37;;;;;;;2.85;1.35;;;;;;;;;;5053458;28;20104;-71
2022/10/02 14:03:10;;;;;;;2.17;1.40;;;;;;;;;;5053138;28;20052;-72
2022/10/02 14:05:56;;;;;;;3.17;1.35;;;;;;;;;;5052165;28;20551;-71
2022/10/02 14:08:22;;;;;;;3.70;1.30;;;;;;;;;;5052594;28;20055;-71
2022/10/02 14:11:06;;;;;;;1.58;1.13;;;;;;;;;;5053109;28;20037;-71
2022/10/02 14:13:32;;;;;;;2.13;1.30;;;;;;;;;;5053785;28;20091;-71
2022/10/02 14:16:02;;;;;;;2.53;1.70;;;;;;;;;;5052971;28;20025;-71
2022/10/02 14:18:34;;;;;;;2.30;1.67;;;;;;;;;;5053241;28;20037;-71
2022/10/02 14:21:14;;;;;;;2.60;1.60;;;;;;;;;;5053418;28;20544;-72
2022/10/02 14:23:40;;;;;;;;;;;;;;;;;;5052830;28;20052;-71
2022/10/02 14:26:23;;;;;;;5.30;2.40;;;;;;;;;;5051895;28;20424;-71
2022/10/02 14:28:58;;;;;;;3.97;3.33;;;;;;;;;;5051569;28;20643;-71
2022/10/02 14:31:42;;;;;;;6.53;3.20;;;;;;;;;;5051962;28;20040;-71
2022/10/02 14:34:23;;;;;;;2.45;1.60;;;;;;;;;;5052266;28;20040;-71
2022/10/02 14:36:48;;;;;;;;;;;;;;;;;;5053290;28;20021;-71
2022/10/02 14:39:16;;;;;;;4.23;1.70;;;;;;;;;;5051444;28;19999;-71
2022/10/02 14:42:14;;;;;;;3.42;1.27;;;;;;;;;;5051950;28;20271;-71
2022/10/02 14:44:59;;;;;;;2.58;1.90;;;;;;;;;;5009219;28;20479;-70
2022/10/02 14:47:25;;;;;;;14.07;7.43;;;;;;;;;;5053412;28;20029;-70
2022/10/02 14:49:57;;;;;;;3.13;2.20;;;;;;;;;;5053304;28;20025;-70
2022/10/02 14:52:29;;;;;;;2.33;0.90;;;;;;;;;;5056942;28;20033;-71
2022/10/02 14:55:15;;;;;;;2.63;1.73;;;;;;;;;;5057247;28;20047;-70
2022/10/02 14:57:43;;;;;;;3.75;1.30;;;;;;;;;;5057162;28;20135;-71
2022/10/02 15:00:14;;;;;;;2.05;0.70;;;;;;;;;;5057206;28;20066;-70
2022/10/02 15:02:49;;;;;;;1.33;0.90;;;;;;;;;;5057061;28;20067;-70
2022/10/02 15:05:27;;;;;;;1.33;1.05;;;;;;;;;;5057069;28;20395;-71
2022/10/02 15:07:52;;;;;;;0.90;0.90;;;;;;;;;;5056948;28;20115;-70
2022/10/02 15:10:20;;;;;;;1.10;0.80;;;;;;;;;;5056958;28;20024;-70
2022/10/02 15:13:01;;;;;;;1.40;1.00;;;;;;;;;;5056812;28;20033;-71
2022/10/02 15:15:42;;;;;;;3.78;1.00;;;;;;;;;;5056861;28;20119;-70
2022/10/02 15:18:12;;;;;;;3.15;1.20;;;;;;;;;;5057096;28;20463;-69
2022/10/02 15:20:58;;;;;;;1.20;1.02;;;;;;;;;;5055505;28;20028;-70
2022/10/02 15:23:43;;;;;;;0.95;0.88;;;;;;;;;;5039484;28;20128;-70
2022/10/02 15:26:10;;;;;;;4.50;2.28;;;;;;;;;;5038177;28;20045;-71
2022/10/02 15:28:53;;;;;;;5.30;3.20;;;;;;;;;;5055265;28;20478;-70
2022/10/02 15:31:21;;;;;;;3.72;1.77;;;;;;;;;;5056498;28;20033;-71
2022/10/02 15:33:55;;;;;;;3.75;2.47;;;;;;;;;;5056462;28;20367;-71